Milbank, South Dakota
Current Conditions -  °F | °C
As of 11:34 PM on Wednesday 26 Nov 2014 (Local Time) from KVVV Reporting Station
Clear Clear  
Wind Chill: -17°   Ceiling: Unl
Heat Index: -2°   Visibility: 10mi
Dew Point: -8°   Wind: 8mph
Humidity: 78%   Direction: 330°NNW
Pressure: 30.52"   Gusts: NA
Location:  45.22°N, 96.63°W
Report Text: KVVV 270534Z AUTO 33007KT 10SM CLR M19/M22 A3052 RMK AO2
Loading
Personal Weather Stations






























Interactive Weather Map New forecast layout! Learn more

10-Day Weather Forecast

Advertisements
Track Severe Weather on mobile